createdAt,value
2018-10-11T00:03:29.528Z,95543.00
2018-10-11T00:08:59.518Z,95559.00
2018-10-11T00:14:30.110Z,95554.00
2018-10-11T00:19:59.724Z,95563.00
2018-10-11T00:25:30.167Z,95563.00
2018-10-11T00:30:59.642Z,95565.00
2018-10-11T00:36:29.120Z,95568.00
2018-10-11T00:41:58.645Z,95559.00
2018-10-11T00:47:28.145Z,95550.00
2018-10-11T00:52:58.649Z,95551.00
2018-10-11T00:58:28.116Z,95544.00
2018-10-11T01:03:57.640Z,95541.00
2018-10-11T01:09:33.052Z,95542.00
2018-10-11T01:15:02.636Z,95535.00
2018-10-11T01:20:37.707Z,95537.00
2018-10-11T01:26:07.197Z,95535.00
2018-10-11T01:31:36.754Z,95525.00
2018-10-11T01:37:06.218Z,95531.00
2018-10-11T01:42:35.846Z,95531.00
2018-10-11T01:48:06.500Z,95531.00
2018-10-11T01:53:35.964Z,95518.00
2018-10-11T01:59:05.478Z,95510.00
2018-10-11T02:04:35.072Z,95507.00
2018-10-11T02:10:04.642Z,95512.00
2018-10-11T02:15:34.144Z,95510.00
2018-10-11T02:21:03.626Z,95508.00
2018-10-11T02:26:33.100Z,95504.00
2018-10-11T02:32:17.687Z,95511.00
2018-10-11T02:37:47.312Z,95506.00
2018-10-11T02:43:17.604Z,95509.00
2018-10-11T02:48:48.020Z,95514.00
2018-10-11T02:54:17.679Z,95501.00
2018-10-11T02:59:47.128Z,95501.00
2018-10-11T03:05:18.856Z,95505.00
2018-10-11T03:10:49.333Z,95493.00
2018-10-11T03:16:18.860Z,95492.00
2018-10-11T03:21:48.371Z,95490.00
2018-10-11T03:27:17.852Z,95491.00
2018-10-11T03:32:47.328Z,95500.00
2018-10-11T03:38:16.762Z,95490.00
2018-10-11T03:43:46.245Z,95498.00
2018-10-11T03:49:21.728Z,95506.00
2018-10-11T03:54:51.139Z,95504.00
2018-10-11T04:00:20.625Z,95513.00
2018-10-11T04:05:50.108Z,95492.00
2018-10-11T04:11:20.590Z,95487.00
2018-10-11T04:16:50.242Z,95494.00
2018-10-11T04:22:22.414Z,95498.00
2018-10-11T04:27:59.367Z,95495.00
2018-10-11T04:33:31.013Z,95500.00
2018-10-11T04:39:00.617Z,95510.00
2018-10-11T04:44:35.627Z,95505.00
2018-10-11T04:50:05.096Z,95504.00
2018-10-11T04:55:43.624Z,95505.00
2018-10-11T05:01:13.281Z,95513.00
2018-10-11T05:06:43.015Z,95518.00
2018-10-11T05:12:13.090Z,95524.00
2018-10-11T05:17:45.583Z,95530.00
2018-10-11T05:23:14.987Z,95533.00
2018-10-11T05:28:55.865Z,95537.00
2018-10-11T05:34:25.296Z,95542.00
2018-10-11T05:39:54.736Z,95542.00
2018-10-11T05:45:25.644Z,95550.00
2018-10-11T05:50:55.527Z,95539.00
2018-10-11T05:56:27.717Z,95534.00
2018-10-11T06:01:57.211Z,95540.00
2018-10-11T06:07:26.733Z,95532.00
2018-10-11T06:12:56.386Z,95542.00
2018-10-11T06:18:26.003Z,95547.00
2018-10-11T06:23:55.730Z,95551.00
2018-10-11T06:29:25.155Z,95564.00
2018-10-11T06:34:54.605Z,95557.00
2018-10-11T06:40:24.214Z,95557.00
2018-10-11T06:45:53.672Z,95567.00
2018-10-11T06:51:23.059Z,95563.00
2018-10-11T06:56:52.511Z,95563.00
2018-10-11T07:02:21.952Z,95572.00
2018-10-11T07:07:51.375Z,95564.00
2018-10-11T07:13:21.838Z,95557.00
2018-10-11T07:18:51.516Z,95573.00
2018-10-11T07:24:20.867Z,95576.00
2018-10-11T07:29:50.275Z,95581.00
2018-10-11T07:35:19.753Z,95597.00
2018-10-11T07:40:49.453Z,95593.00
2018-10-11T07:46:19.001Z,95593.00
2018-10-11T07:51:55.043Z,95589.00
2018-10-11T07:57:24.528Z,95593.00
2018-10-11T08:02:53.958Z,95591.00
2018-10-11T08:08:23.402Z,95599.00
2018-10-11T08:13:52.726Z,95594.00
2018-10-11T08:19:22.315Z,95594.00
2018-10-11T08:24:51.804Z,95595.00
2018-10-11T08:30:21.026Z,95596.00
2018-10-11T08:35:50.545Z,95594.00
2018-10-11T08:41:19.963Z,95591.00
2018-10-11T08:46:49.536Z,95592.00
2018-10-11T08:52:18.968Z,95593.00
2018-10-11T08:57:48.395Z,95585.00
2018-10-11T09:03:18.001Z,95588.00
2018-10-11T09:08:47.337Z,95595.00
2018-10-11T09:14:16.864Z,95586.00
2018-10-11T09:19:46.252Z,95589.00
2018-10-11T09:25:15.988Z,95590.00
2018-10-11T09:30:44.928Z,95588.00
2018-10-11T09:36:14.807Z,95591.00
2018-10-11T09:41:44.145Z,95590.00
2018-10-11T09:47:13.561Z,95586.00
2018-10-11T09:52:42.962Z,95593.00
2018-10-11T09:58:12.325Z,95596.00
2018-10-11T10:03:41.754Z,95593.00
2018-10-11T10:09:11.206Z,95595.00
2018-10-11T10:14:41.413Z,95594.00
2018-10-11T10:20:10.797Z,95589.00
2018-10-11T10:25:40.246Z,95592.00
2018-10-11T10:31:09.833Z,95593.00
2018-10-11T10:36:39.273Z,95586.00
2018-10-11T10:42:08.752Z,95589.00
2018-10-11T10:47:38.208Z,95582.00
2018-10-11T10:53:07.925Z,95587.00
2018-10-11T10:58:37.325Z,95588.00
2018-10-11T11:04:06.825Z,95593.00
2018-10-11T11:09:36.321Z,95586.00
2018-10-11T11:15:05.870Z,95584.00
2018-10-11T11:20:35.168Z,95579.00
2018-10-11T11:26:04.635Z,95580.00
2018-10-11T11:31:34.141Z,95575.00
2018-10-11T11:37:05.592Z,95573.00
2018-10-11T11:42:35.152Z,95568.00
2018-10-11T11:48:05.003Z,95575.00
2018-10-11T11:53:34.351Z,95570.00
2018-10-11T11:59:03.810Z,95569.00
2018-10-11T12:04:33.250Z,95566.00
2018-10-11T12:10:02.719Z,95569.00
2018-10-11T12:15:33.464Z,95566.00
2018-10-11T12:21:03.824Z,95564.00
2018-10-11T12:26:33.249Z,95567.00
2018-10-11T12:32:02.628Z,95576.00
2018-10-11T12:37:32.100Z,95571.00
2018-10-11T12:43:01.623Z,95575.00
2018-10-11T12:48:31.022Z,95575.00
2018-10-11T12:54:01.489Z,95567.00
2018-10-11T12:59:31.849Z,95561.00
2018-10-11T13:05:01.247Z,95564.00
2018-10-11T13:10:30.817Z,95565.00
2018-10-11T13:16:02.838Z,95572.00
2018-10-11T13:21:29.809Z,95566.00
2018-10-11T13:26:59.378Z,95560.00
2018-10-11T13:32:29.966Z,95559.00
2018-10-11T13:37:59.699Z,95565.00
2018-10-11T13:43:32.548Z,95576.00
2018-10-11T13:49:01.965Z,95562.00
2018-10-11T13:54:31.425Z,95564.00
2018-10-11T14:00:00.890Z,95561.00
2018-10-11T14:05:30.350Z,95531.00
2018-10-11T14:11:01.414Z,95522.00
2018-10-11T14:16:30.817Z,95536.00
2018-10-11T14:22:00.153Z,95552.00
2018-10-11T14:27:29.680Z,95555.00
2018-10-11T14:32:58.957Z,95559.00
2018-10-11T14:38:31.973Z,95548.00
2018-10-11T14:44:01.381Z,95548.00
2018-10-11T14:49:30.886Z,95567.00
2018-10-11T14:55:00.243Z,95563.00
2018-10-11T15:00:32.375Z,95569.00
2018-10-11T15:06:03.965Z,95580.00
2018-10-11T15:11:33.687Z,95593.00
2018-10-11T15:17:03.090Z,95593.00
2018-10-11T15:22:33.686Z,95601.00
2018-10-11T15:28:03.008Z,95603.00
2018-10-11T15:33:32.477Z,95597.00
2018-10-11T15:39:04.228Z,95603.00
2018-10-11T15:44:33.681Z,95604.00
2018-10-11T15:50:03.190Z,95601.00
2018-10-11T15:55:32.549Z,95605.00
2018-10-11T16:01:01.880Z,95610.00
2018-10-11T16:06:31.296Z,95616.00
2018-10-11T16:12:00.737Z,95616.00
2018-10-11T16:17:30.243Z,95619.00
2018-10-11T16:22:59.548Z,95619.00
2018-10-11T16:28:29.005Z,95622.00
2018-10-11T16:33:59.313Z,95634.00
2018-10-11T16:39:30.740Z,95630.00
2018-10-11T16:45:00.375Z,95639.00
2018-10-11T16:50:29.884Z,95636.00
2018-10-11T16:55:59.325Z,95650.00
2018-10-11T17:01:30.732Z,95662.00
2018-10-11T17:07:00.018Z,95660.00
2018-10-11T17:12:29.584Z,95673.00
2018-10-11T17:17:58.861Z,95680.00
2018-10-11T17:23:29.295Z,95678.00
2018-10-11T17:28:58.661Z,95672.00
2018-10-11T17:34:28.182Z,95672.00
2018-10-11T17:39:58.524Z,95673.00
2018-10-11T17:45:27.908Z,95673.00
2018-10-11T17:50:57.356Z,95665.00
2018-10-11T17:56:26.666Z,95668.00
2018-10-11T18:01:56.368Z,95665.00
2018-10-11T18:07:26.137Z,95677.00
2018-10-11T18:12:55.556Z,95675.00
2018-10-11T18:18:24.805Z,95689.00
2018-10-11T18:23:55.349Z,95691.00
2018-10-11T18:29:24.756Z,95687.00
2018-10-11T18:34:54.041Z,95700.00
2018-10-11T18:40:23.630Z,95701.00
2018-10-11T18:45:53.109Z,95711.00
2018-10-11T18:51:22.534Z,95704.00
2018-10-11T18:56:53.008Z,95704.00
2018-10-11T19:02:22.434Z,95699.00
2018-10-11T19:07:51.766Z,95714.00
2018-10-11T19:13:21.178Z,95707.00
2018-10-11T19:18:50.531Z,95715.00
2018-10-11T19:24:19.900Z,95720.00
2018-10-11T19:29:49.264Z,95727.00
2018-10-11T19:35:18.823Z,95720.00
2018-10-11T19:40:48.238Z,95723.00
2018-10-11T19:46:17.577Z,95721.00
2018-10-11T19:51:47.024Z,95723.00
2018-10-11T19:57:16.351Z,95731.00
2018-10-11T20:02:46.515Z,95739.00
2018-10-11T20:08:16.054Z,95738.00
2018-10-11T20:13:45.158Z,95742.00
2018-10-11T20:19:14.513Z,95739.00
2018-10-11T20:24:43.804Z,95745.00
2018-10-11T20:30:13.033Z,95739.00
2018-10-11T20:35:42.433Z,95750.00
2018-10-11T20:41:11.685Z,95748.00
2018-10-11T20:46:43.189Z,95747.00
2018-10-11T20:52:12.532Z,95766.00
2018-10-11T20:57:41.912Z,95769.00
2018-10-11T21:03:11.287Z,95768.00
2018-10-11T21:08:40.860Z,95775.00
2018-10-11T21:14:11.301Z,95776.00
2018-10-11T21:19:41.127Z,95781.00
2018-10-11T21:25:10.720Z,95783.00
2018-10-11T21:30:41.698Z,95775.00
2018-10-11T21:36:14.653Z,95789.00
2018-10-11T21:41:44.605Z,95789.00
2018-10-11T21:47:14.029Z,95791.00
2018-10-11T21:52:45.532Z,95787.00
2018-10-11T21:58:15.852Z,95791.00
2018-10-11T22:03:45.219Z,95801.00
2018-10-11T22:09:14.567Z,95811.00
2018-10-11T22:14:43.980Z,95813.00
2018-10-11T22:20:14.545Z,95819.00
2018-10-11T22:25:43.890Z,95810.00
2018-10-11T22:31:13.787Z,95815.00
2018-10-11T22:36:43.292Z,95818.00
2018-10-11T22:42:12.875Z,95818.00
2018-10-11T22:47:42.297Z,95833.00
2018-10-11T22:53:11.733Z,95833.00
2018-10-11T22:58:41.274Z,95838.00
2018-10-11T23:04:10.645Z,95840.00
2018-10-11T23:09:39.991Z,95847.00
2018-10-11T23:15:09.592Z,95851.00
2018-10-11T23:20:38.980Z,95858.00
2018-10-11T23:26:08.448Z,95854.00
2018-10-11T23:31:37.854Z,95866.00
2018-10-11T23:37:07.463Z,95873.00
2018-10-11T23:42:36.796Z,95863.00
2018-10-11T23:48:06.147Z,95876.00
2018-10-11T23:53:35.549Z,95881.00
2018-10-11T23:59:05.017Z,95886.00
